createdAt,value
2023-05-04T00:00:13.493Z,0.79
2023-05-04T00:01:13.498Z,0.78
2023-05-04T00:02:13.554Z,0.79
2023-05-04T00:03:13.692Z,0.78
2023-05-04T00:04:13.683Z,0.80
2023-05-04T00:05:13.590Z,0.76
2023-05-04T00:06:13.591Z,0.77
2023-05-04T00:07:13.584Z,0.79
2023-05-04T00:08:13.656Z,0.77
2023-05-04T00:09:13.661Z,0.77
2023-05-04T00:10:13.679Z,0.76
2023-05-04T00:11:13.704Z,0.77
2023-05-04T00:12:13.744Z,0.75
2023-05-04T00:13:13.802Z,0.78
2023-05-04T00:14:13.798Z,0.76
2023-05-04T00:15:13.835Z,0.75
2023-05-04T00:16:13.904Z,0.76
2023-05-04T00:17:13.920Z,0.76
2023-05-04T00:18:13.935Z,0.76
2023-05-04T00:19:13.924Z,0.72
2023-05-04T00:20:13.985Z,0.74
2023-05-04T00:21:14.002Z,0.77
2023-05-04T00:22:14.107Z,0.75
2023-05-04T00:23:14.060Z,0.74
2023-05-04T00:24:14.105Z,0.74
2023-05-04T00:25:14.110Z,0.73
2023-05-04T00:26:14.149Z,0.72
2023-05-04T00:27:14.206Z,0.75
2023-05-04T00:28:14.201Z,0.74
2023-05-04T00:29:14.235Z,0.72
2023-05-04T00:30:14.280Z,0.73
2023-05-04T00:31:14.392Z,0.74
2023-05-04T00:32:14.333Z,0.74
2023-05-04T00:33:14.339Z,0.71
2023-05-04T00:34:14.377Z,0.75
2023-05-04T00:35:14.458Z,0.73
2023-05-04T00:36:14.452Z,0.74
2023-05-04T00:37:14.472Z,0.71
2023-05-04T00:38:14.504Z,0.72
2023-05-04T00:39:14.622Z,0.74
2023-05-04T00:40:14.550Z,0.72
2023-05-04T00:41:14.624Z,0.71
2023-05-04T00:42:14.662Z,0.72
2023-05-04T00:43:14.662Z,0.73
2023-05-04T00:44:14.688Z,0.75
2023-05-04T00:45:14.740Z,0.74
2023-05-04T00:46:14.785Z,0.74
2023-05-04T00:47:14.828Z,0.75
2023-05-04T00:48:15.016Z,0.77
2023-05-04T00:49:14.827Z,0.75
2023-05-04T00:50:14.907Z,0.78
2023-05-04T00:51:14.938Z,0.76
2023-05-04T00:52:14.975Z,0.77
2023-05-04T00:53:15.012Z,0.77
2023-05-04T00:54:15.021Z,0.78
2023-05-04T00:55:15.051Z,0.76
2023-05-04T00:56:15.088Z,0.76
2023-05-04T00:57:15.115Z,0.76
2023-05-04T00:58:15.161Z,0.79
2023-05-04T00:59:15.192Z,0.80
2023-05-04T01:00:15.184Z,0.76
2023-05-04T01:01:15.308Z,0.76
2023-05-04T01:02:15.294Z,0.77
2023-05-04T01:03:15.384Z,0.77
2023-05-04T01:04:15.398Z,0.77
2023-05-04T01:05:15.385Z,0.76
2023-05-04T01:06:15.425Z,0.77
2023-05-04T01:07:15.510Z,0.78
2023-05-04T01:08:15.492Z,0.78
2023-05-04T01:09:15.551Z,0.78
2023-05-04T01:10:15.594Z,0.76
2023-05-04T01:11:15.630Z,0.78
2023-05-04T01:12:15.673Z,0.77
2023-05-04T01:13:15.846Z,0.79
2023-05-04T01:14:15.746Z,0.77
2023-05-04T01:15:15.831Z,0.79
2023-05-04T01:16:15.872Z,0.78
2023-05-04T01:17:15.932Z,0.80
2023-05-04T01:18:15.928Z,0.78
2023-05-04T01:19:15.993Z,0.79
2023-05-04T01:20:16.008Z,0.80
2023-05-04T01:21:16.025Z,0.79
2023-05-04T01:22:16.085Z,0.80
2023-05-04T01:23:16.121Z,0.79
2023-05-04T01:24:16.166Z,0.79
2023-05-04T01:25:16.226Z,0.79
2023-05-04T01:26:16.272Z,0.78
2023-05-04T01:27:16.278Z,0.80
2023-05-04T01:28:16.350Z,0.79
2023-05-04T01:29:16.395Z,0.78
2023-05-04T01:30:16.441Z,0.79
2023-05-04T01:31:16.518Z,0.77
2023-05-04T01:32:16.533Z,0.79
2023-05-04T01:33:16.547Z,0.78
2023-05-04T01:34:16.601Z,0.80
2023-05-04T01:35:16.632Z,0.78
2023-05-04T01:36:16.689Z,0.77
2023-05-04T01:37:16.725Z,0.77
2023-05-04T01:38:16.786Z,0.80
2023-05-04T01:39:16.839Z,0.77
2023-05-04T01:40:16.873Z,0.79
2023-05-04T01:41:16.929Z,0.77
2023-05-04T01:42:16.989Z,0.79
2023-05-04T01:43:17.013Z,0.78
2023-05-04T01:44:17.044Z,0.79
2023-05-04T01:45:17.186Z,0.80
2023-05-04T01:46:17.182Z,0.78
2023-05-04T01:47:17.208Z,0.80
2023-05-04T01:48:17.238Z,0.77
2023-05-04T01:49:17.295Z,0.78
2023-05-04T01:50:17.347Z,0.78
2023-05-04T01:51:17.390Z,0.79
2023-05-04T01:52:17.449Z,0.77
2023-05-04T01:53:17.514Z,0.77
2023-05-04T01:54:17.556Z,0.78
2023-05-04T01:55:17.605Z,0.78
2023-05-04T01:56:17.682Z,0.79
2023-05-04T01:57:17.706Z,0.78
2023-05-04T01:58:17.791Z,0.79
2023-05-04T01:59:17.786Z,0.78
2023-05-04T02:00:17.879Z,0.79
2023-05-04T02:01:17.971Z,0.78
2023-05-04T02:02:17.992Z,0.79
2023-05-04T02:03:18.118Z,0.79
2023-05-04T02:04:18.100Z,0.80
2023-05-04T02:05:18.136Z,0.79
2023-05-04T02:06:18.258Z,0.78
2023-05-04T02:07:18.272Z,0.79
2023-05-04T02:08:18.377Z,0.77
2023-05-04T02:09:18.371Z,0.78
2023-05-04T02:10:18.483Z,0.79
2023-05-04T02:11:18.528Z,0.79
2023-05-04T02:12:18.545Z,0.78
2023-05-04T02:13:18.632Z,0.79
2023-05-04T02:14:18.751Z,0.79
2023-05-04T02:15:18.715Z,0.79
2023-05-04T02:16:18.881Z,0.80
2023-05-04T02:17:18.830Z,0.78
2023-05-04T02:18:18.882Z,0.80
2023-05-04T02:19:18.940Z,0.79
2023-05-04T02:20:19.024Z,0.80
2023-05-04T02:21:19.073Z,0.80
2023-05-04T02:22:19.098Z,0.79
2023-05-04T02:23:19.187Z,0.81
2023-05-04T02:24:19.313Z,0.81
2023-05-04T02:25:19.266Z,0.77
2023-05-04T02:26:19.375Z,0.78
2023-05-04T02:27:19.425Z,0.79
2023-05-04T02:28:19.456Z,0.77
2023-05-04T02:29:19.525Z,0.77
2023-05-04T02:30:19.602Z,0.78
2023-05-04T02:31:19.746Z,0.78
2023-05-04T02:32:19.856Z,0.75
2023-05-04T02:33:19.768Z,0.74
2023-05-04T02:34:19.837Z,0.76
2023-05-04T02:35:19.917Z,0.77
2023-05-04T02:36:19.983Z,0.75
2023-05-04T02:37:20.041Z,0.76
2023-05-04T02:38:20.138Z,0.76
2023-05-04T02:39:20.168Z,0.75
2023-05-04T02:40:20.246Z,0.76
2023-05-04T02:41:20.262Z,0.73
2023-05-04T02:42:20.324Z,0.76
2023-05-04T02:43:20.370Z,0.75
2023-05-04T02:44:20.452Z,0.76
2023-05-04T02:45:20.569Z,0.75
2023-05-04T02:46:20.606Z,0.75
2023-05-04T02:47:20.702Z,0.74
2023-05-04T02:48:20.688Z,0.72
2023-05-04T02:49:20.692Z,0.73
2023-05-04T02:50:20.759Z,0.73
2023-05-04T02:51:20.859Z,0.73
2023-05-04T02:52:20.928Z,0.73
2023-05-04T02:53:20.935Z,0.72
2023-05-04T02:54:21.051Z,0.72
2023-05-04T02:55:21.052Z,0.72
2023-05-04T02:56:21.111Z,0.73
2023-05-04T02:57:21.164Z,0.72
2023-05-04T02:58:21.203Z,0.72
2023-05-04T02:59:21.206Z,0.73
2023-05-04T03:00:21.287Z,0.72
2023-05-04T03:01:21.315Z,0.72
2023-05-04T03:02:21.355Z,0.71
2023-05-04T03:03:21.334Z,0.72
2023-05-04T03:04:21.522Z,0.72
2023-05-04T03:05:21.415Z,0.70
2023-05-04T03:06:21.445Z,0.69
2023-05-04T03:07:21.460Z,0.70
2023-05-04T03:08:21.475Z,0.69
2023-05-04T03:09:21.488Z,0.69
2023-05-04T03:10:21.518Z,0.68
2023-05-04T03:11:21.503Z,0.68
2023-05-04T03:12:21.530Z,0.68
2023-05-04T03:13:21.600Z,0.67
2023-05-04T03:14:21.638Z,0.68
2023-05-04T03:15:21.630Z,0.69
2023-05-04T03:16:21.664Z,0.68
2023-05-04T03:17:21.691Z,0.68
2023-05-04T03:18:21.730Z,0.68
2023-05-04T03:19:21.784Z,0.69
2023-05-04T03:20:21.789Z,0.70
2023-05-04T03:21:21.798Z,0.69
2023-05-04T03:22:21.852Z,0.68
2023-05-04T03:23:21.897Z,0.68
2023-05-04T03:24:21.912Z,0.69
2023-05-04T03:25:21.939Z,0.69
2023-05-04T03:26:21.899Z,0.69
2023-05-04T03:27:21.948Z,0.70
2023-05-04T03:28:21.948Z,0.69
2023-05-04T03:29:22.043Z,0.70
2023-05-04T03:30:22.057Z,0.69
2023-05-04T03:31:22.116Z,0.70
2023-05-04T03:32:22.121Z,0.71
2023-05-04T03:33:22.090Z,0.69
2023-05-04T03:34:22.066Z,0.69
2023-05-04T03:35:24.868Z,0.72
2023-05-04T03:36:22.148Z,0.72
2023-05-04T03:37:22.061Z,0.73
2023-05-04T03:38:22.167Z,0.73
2023-05-04T03:39:22.026Z,0.72
2023-05-04T03:40:22.021Z,0.72
2023-05-04T03:41:22.043Z,0.71
2023-05-04T03:42:22.017Z,0.72
2023-05-04T03:43:22.006Z,0.71
2023-05-04T03:44:22.049Z,0.73
2023-05-04T03:45:22.011Z,0.72
2023-05-04T03:46:22.058Z,0.74
2023-05-04T03:47:22.003Z,0.73
2023-05-04T03:48:21.970Z,0.75
2023-05-04T03:49:21.951Z,0.74
2023-05-04T03:50:21.970Z,0.74
2023-05-04T03:51:21.963Z,0.74
2023-05-04T03:52:21.960Z,0.74
2023-05-04T03:53:21.951Z,0.77
2023-05-04T03:54:21.921Z,0.75
2023-05-04T03:55:21.974Z,0.74
2023-05-04T03:56:21.934Z,0.76
2023-05-04T03:57:21.933Z,0.77
2023-05-04T03:58:21.924Z,0.77
2023-05-04T03:59:21.903Z,0.77
2023-05-04T04:00:21.909Z,0.79
2023-05-04T04:01:21.860Z,0.78
2023-05-04T04:02:21.976Z,0.80
2023-05-04T04:03:22.242Z,0.82
2023-05-04T04:04:21.904Z,0.84
2023-05-04T04:05:21.885Z,0.84
2023-05-04T04:06:21.868Z,0.85
2023-05-04T04:07:21.853Z,0.82
2023-05-04T04:08:21.866Z,0.82
2023-05-04T04:09:21.852Z,0.82
2023-05-04T04:10:21.838Z,0.81
2023-05-04T04:11:21.834Z,0.82
2023-05-04T04:12:21.843Z,0.81
2023-05-04T04:13:21.860Z,0.82
2023-05-04T04:14:21.797Z,0.81
2023-05-04T04:15:21.810Z,0.80
2023-05-04T04:16:21.820Z,0.81
2023-05-04T04:17:21.802Z,0.82
2023-05-04T04:18:21.769Z,0.80
2023-05-04T04:19:21.777Z,0.80
2023-05-04T04:20:21.768Z,0.80
2023-05-04T04:21:21.780Z,0.80
2023-05-04T04:22:21.742Z,0.81
2023-05-04T04:23:21.842Z,0.80
2023-05-04T04:24:21.741Z,0.80
2023-05-04T04:25:21.754Z,0.80
2023-05-04T04:26:21.708Z,0.79
2023-05-04T04:27:21.713Z,0.79
2023-05-04T04:28:21.720Z,0.79
2023-05-04T04:29:21.702Z,0.78
2023-05-04T04:30:21.763Z,0.80
2023-05-04T04:31:21.776Z,0.80
2023-05-04T04:32:21.735Z,0.81
2023-05-04T04:33:21.700Z,0.81
2023-05-04T04:34:21.697Z,0.82
2023-05-04T04:35:21.728Z,0.84
2023-05-04T04:36:21.815Z,0.85
2023-05-04T04:37:21.708Z,0.87
2023-05-04T04:38:21.726Z,0.87
2023-05-04T04:39:21.728Z,0.88
2023-05-04T04:40:21.706Z,0.90
2023-05-04T04:41:21.644Z,0.92
2023-05-04T04:42:21.715Z,0.93
2023-05-04T04:43:21.628Z,0.94
2023-05-04T04:44:21.628Z,0.95
2023-05-04T04:45:21.589Z,0.97
2023-05-04T04:46:21.642Z,0.96
2023-05-04T04:47:21.614Z,0.97
2023-05-04T04:48:21.616Z,0.97
2023-05-04T04:49:21.563Z,0.99
2023-05-04T04:50:21.574Z,1.01
2023-05-04T04:51:21.616Z,0.98
2023-05-04T04:52:21.559Z,0.99
2023-05-04T04:53:21.560Z,1.02
2023-05-04T04:54:21.534Z,1.00
2023-05-04T04:55:21.548Z,1.03
2023-05-04T04:56:21.597Z,1.06
2023-05-04T04:57:21.505Z,1.05
2023-05-04T04:58:21.514Z,1.04
2023-05-04T04:59:21.529Z,1.04
2023-05-04T05:00:21.503Z,1.03
2023-05-04T05:01:21.572Z,1.03
2023-05-04T05:02:21.502Z,1.03
2023-05-04T05:03:21.450Z,1.04
2023-05-04T05:04:21.486Z,1.06
2023-05-04T05:05:21.463Z,1.04
2023-05-04T05:06:21.445Z,1.05
2023-05-04T05:07:21.465Z,1.02
2023-05-04T05:08:21.432Z,1.05
2023-05-04T05:09:21.450Z,1.03
2023-05-04T05:10:21.451Z,1.06
2023-05-04T05:11:21.427Z,1.04
2023-05-04T05:12:21.457Z,1.04
2023-05-04T05:13:21.518Z,1.04
2023-05-04T05:14:21.436Z,1.06
2023-05-04T05:15:21.396Z,1.03
2023-05-04T05:16:21.487Z,1.02
2023-05-04T05:17:21.408Z,1.02
2023-05-04T05:18:21.408Z,1.04
2023-05-04T05:19:21.356Z,1.03
2023-05-04T05:20:21.412Z,1.06
2023-05-04T05:21:21.383Z,1.05
2023-05-04T05:22:21.361Z,1.06
2023-05-04T05:23:21.374Z,1.07
2023-05-04T05:24:21.341Z,1.07
2023-05-04T05:25:21.355Z,1.06
2023-05-04T05:26:21.323Z,1.10
2023-05-04T05:27:21.323Z,1.08
2023-05-04T05:28:21.312Z,1.06
2023-05-04T05:29:21.320Z,1.08
2023-05-04T05:30:21.317Z,1.09
2023-05-04T05:31:21.327Z,1.07
2023-05-04T05:32:21.277Z,1.07
2023-05-04T05:33:21.305Z,1.10
2023-05-04T05:34:21.265Z,1.09
2023-05-04T05:35:21.273Z,1.06
2023-05-04T05:36:21.250Z,1.07
2023-05-04T05:37:21.283Z,1.07
2023-05-04T05:38:21.273Z,1.05
2023-05-04T05:39:21.290Z,1.03
2023-05-04T05:40:21.299Z,1.05
2023-05-04T05:41:21.352Z,1.07
2023-05-04T05:42:21.436Z,1.12
2023-05-04T05:43:21.371Z,1.09
2023-05-04T05:44:21.485Z,1.08
2023-05-04T05:45:21.560Z,1.07
2023-05-04T05:46:21.530Z,1.13
2023-05-04T05:47:21.547Z,1.15
2023-05-04T05:48:22.027Z,1.22
2023-05-04T05:49:21.620Z,1.27
2023-05-04T05:50:21.628Z,1.28
2023-05-04T05:51:21.655Z,1.31
2023-05-04T05:52:21.740Z,1.42
2023-05-04T05:53:21.746Z,1.60
2023-05-04T05:54:21.748Z,1.72
2023-05-04T05:55:21.713Z,1.91
2023-05-04T05:56:21.776Z,2.08
2023-05-04T05:57:21.797Z,2.16
2023-05-04T05:58:21.816Z,2.28
2023-05-04T05:59:21.806Z,2.42
2023-05-04T06:00:21.802Z,2.46
2023-05-04T06:01:21.810Z,2.58
2023-05-04T06:02:21.930Z,2.62
2023-05-04T06:03:21.993Z,2.72
2023-05-04T06:04:22.027Z,2.79
2023-05-04T06:05:22.012Z,2.93
2023-05-04T06:06:22.089Z,2.94
2023-05-04T06:07:22.151Z,2.90
2023-05-04T06:08:22.207Z,3.48
2023-05-04T06:09:22.284Z,4.00
2023-05-04T06:10:22.273Z,5.31
2023-05-04T06:11:22.538Z,5.16
2023-05-04T06:12:22.344Z,4.70
2023-05-04T06:13:22.539Z,4.69
2023-05-04T06:14:22.479Z,4.72
2023-05-04T06:15:22.578Z,4.46
2023-05-04T06:16:22.585Z,4.45
2023-05-04T06:17:22.703Z,4.43
2023-05-04T06:18:22.672Z,4.41
2023-05-04T06:19:22.652Z,4.32
2023-05-04T06:20:22.685Z,4.29
2023-05-04T06:21:22.775Z,4.34
2023-05-04T06:22:22.806Z,4.43
2023-05-04T06:23:22.836Z,4.37
2023-05-04T06:24:23.112Z,4.32
2023-05-04T06:25:22.899Z,4.25
2023-05-04T06:26:22.925Z,4.31
2023-05-04T06:27:24.250Z,4.23
2023-05-04T06:28:23.043Z,4.29
2023-05-04T06:29:23.016Z,4.36
2023-05-04T06:30:23.049Z,4.22
2023-05-04T06:31:23.082Z,4.24
2023-05-04T06:32:23.103Z,4.18
2023-05-04T06:33:23.152Z,4.10
2023-05-04T06:34:23.136Z,4.01
2023-05-04T06:35:23.166Z,3.89
2023-05-04T06:36:23.156Z,3.84
2023-05-04T06:37:23.178Z,3.82
2023-05-04T06:38:23.209Z,3.76
2023-05-04T06:39:23.224Z,3.65
2023-05-04T06:40:23.337Z,3.59
2023-05-04T06:41:23.284Z,3.44
2023-05-04T06:42:23.289Z,3.06
2023-05-04T06:43:23.332Z,2.89
2023-05-04T06:44:23.589Z,3.00
2023-05-04T06:45:23.447Z,2.99
2023-05-04T06:46:23.589Z,3.03
2023-05-04T06:47:23.547Z,3.00
2023-05-04T06:48:23.545Z,2.92
2023-05-04T06:49:23.535Z,2.96
2023-05-04T06:50:23.611Z,3.00
2023-05-04T06:51:23.647Z,2.93
2023-05-04T06:52:24.044Z,2.91
2023-05-04T06:53:24.092Z,2.96
2023-05-04T06:54:23.707Z,2.91
2023-05-04T06:55:23.707Z,2.95
2023-05-04T06:56:23.714Z,2.90
2023-05-04T06:57:23.727Z,2.92
2023-05-04T06:58:23.730Z,3.00
2023-05-04T06:59:23.778Z,3.05
2023-05-04T07:00:24.073Z,3.08
2023-05-04T07:01:23.836Z,2.96
2023-05-04T07:02:23.834Z,2.95
2023-05-04T07:03:23.810Z,2.83
2023-05-04T07:04:23.788Z,2.85
2023-05-04T07:05:24.096Z,2.68
2023-05-04T07:06:23.780Z,2.63
2023-05-04T07:07:23.817Z,2.60
2023-05-04T07:08:23.803Z,2.48
2023-05-04T07:09:23.788Z,2.50
2023-05-04T07:10:23.803Z,2.45
2023-05-04T07:11:23.812Z,2.41
2023-05-04T07:12:23.772Z,2.41
2023-05-04T07:13:23.755Z,2.39
2023-05-04T07:14:23.792Z,2.39
2023-05-04T07:15:23.823Z,2.41
2023-05-04T07:16:23.802Z,2.31
2023-05-04T07:17:23.870Z,2.35
2023-05-04T07:18:23.770Z,2.13
2023-05-04T07:19:23.775Z,2.17
2023-05-04T07:20:26.032Z,2.11
2023-05-04T07:21:28.277Z,2.12
2023-05-04T07:22:24.980Z,2.12
2023-05-04T07:23:23.987Z,2.12
2023-05-04T07:24:23.949Z,2.02
2023-05-04T07:25:24.107Z,1.89
2023-05-04T07:26:23.964Z,1.77
2023-05-04T07:27:23.964Z,1.74
2023-05-04T07:28:23.933Z,1.69
2023-05-04T07:29:23.916Z,1.74
2023-05-04T07:30:24.051Z,1.68
2023-05-04T07:31:23.931Z,1.64
2023-05-04T07:32:23.968Z,1.56
2023-05-04T07:33:23.984Z,1.48
2023-05-04T07:34:34.004Z,1.27
2023-05-04T07:35:25.160Z,1.17
2023-05-04T07:36:23.933Z,1.13
2023-05-04T07:37:23.954Z,1.00
2023-05-04T07:38:23.919Z,0.98
2023-05-04T07:39:23.886Z,0.94
2023-05-04T07:40:23.890Z,0.90
2023-05-04T07:41:24.080Z,0.91
2023-05-04T07:42:23.899Z,0.93
2023-05-04T07:43:23.851Z,0.95
2023-05-04T07:44:23.916Z,0.93
2023-05-04T07:45:23.875Z,0.92
2023-05-04T07:46:23.957Z,0.89
2023-05-04T07:47:24.699Z,0.85
2023-05-04T07:48:26.196Z,0.82
2023-05-04T07:49:23.843Z,0.83
2023-05-04T07:50:24.124Z,0.85
2023-05-04T07:51:24.086Z,0.85
2023-05-04T07:52:23.827Z,0.79
2023-05-04T07:53:23.791Z,0.79
2023-05-04T07:54:23.829Z,0.80
2023-05-04T07:55:23.849Z,0.79
2023-05-04T07:56:23.792Z,0.80
2023-05-04T07:57:23.818Z,0.77
2023-05-04T07:58:23.810Z,0.80
2023-05-04T07:59:23.794Z,0.77
2023-05-04T08:00:23.795Z,0.74
2023-05-04T08:01:23.807Z,0.75
2023-05-04T08:02:23.816Z,0.75
2023-05-04T08:03:23.875Z,0.77
2023-05-04T08:04:23.746Z,0.82
2023-05-04T08:05:24.060Z,0.90
2023-05-04T08:06:24.074Z,0.99
2023-05-04T08:07:23.747Z,0.98
2023-05-04T08:08:23.745Z,0.98
2023-05-04T08:09:23.717Z,0.92
2023-05-04T08:10:23.722Z,0.94
2023-05-04T08:11:23.679Z,0.97
2023-05-04T08:12:23.699Z,0.98
2023-05-04T08:13:23.662Z,1.04
2023-05-04T08:14:23.744Z,1.10
2023-05-04T08:15:23.658Z,1.13
2023-05-04T08:16:23.863Z,1.15
2023-05-04T08:17:23.674Z,1.23
2023-05-04T08:18:23.632Z,1.27
2023-05-04T08:19:23.792Z,1.34
2023-05-04T08:20:23.916Z,1.36
2023-05-04T08:21:23.609Z,1.42
2023-05-04T08:22:23.634Z,1.43
2023-05-04T08:23:23.610Z,1.32
2023-05-04T08:24:23.603Z,1.26
2023-05-04T08:25:23.591Z,1.28
2023-05-04T08:26:23.654Z,1.29
2023-05-04T08:27:23.641Z,1.20
2023-05-04T08:28:23.633Z,1.01
2023-05-04T08:29:23.616Z,0.99
2023-05-04T08:30:23.738Z,1.00
2023-05-04T08:31:23.703Z,0.95
2023-05-04T08:32:23.613Z,0.90
2023-05-04T08:33:23.581Z,0.75
2023-05-04T08:34:23.674Z,0.69
2023-05-04T08:35:23.514Z,0.63
2023-05-04T08:36:23.632Z,0.58
2023-05-04T08:37:23.499Z,0.53
2023-05-04T08:38:23.563Z,0.50
2023-05-04T08:39:23.500Z,0.50
2023-05-04T08:40:23.544Z,0.50
2023-05-04T08:41:23.518Z,0.50
2023-05-04T08:42:23.534Z,0.50
2023-05-04T08:43:23.657Z,0.50
2023-05-04T08:44:24.075Z,0.52
2023-05-04T08:45:23.672Z,0.47
2023-05-04T08:46:23.742Z,0.58
2023-05-04T08:47:23.811Z,0.64
2023-05-04T08:48:23.823Z,0.68
2023-05-04T08:49:23.869Z,0.71
2023-05-04T08:50:23.857Z,0.68
2023-05-04T08:51:23.937Z,0.67
2023-05-04T08:52:23.973Z,0.70
2023-05-04T08:53:24.161Z,0.72
2023-05-04T08:54:24.013Z,0.74
2023-05-04T08:55:24.030Z,0.77
2023-05-04T08:56:24.043Z,0.70
2023-05-04T08:57:24.109Z,0.68
2023-05-04T08:58:24.056Z,0.68
2023-05-04T08:59:24.099Z,0.70
2023-05-04T09:00:24.231Z,0.66
2023-05-04T09:01:24.170Z,0.64
2023-05-04T09:02:24.207Z,0.65
2023-05-04T09:03:24.222Z,0.68
2023-05-04T09:04:24.121Z,0.72
2023-05-04T09:05:24.106Z,0.78
2023-05-04T09:06:24.093Z,0.79
2023-05-04T09:07:24.073Z,0.85
2023-05-04T09:08:24.115Z,0.85
2023-05-04T09:09:24.090Z,0.84
2023-05-04T09:10:24.110Z,0.90
2023-05-04T09:11:24.086Z,0.91
2023-05-04T09:12:24.622Z,0.96
2023-05-04T09:13:24.127Z,0.94
2023-05-04T09:14:24.637Z,0.94
2023-05-04T09:15:24.152Z,0.92
2023-05-04T09:16:24.232Z,0.91
2023-05-04T09:17:24.214Z,0.98
2023-05-04T09:18:24.287Z,0.97
2023-05-04T09:19:24.339Z,0.99
2023-05-04T09:20:24.382Z,0.96
2023-05-04T09:21:24.431Z,0.83
2023-05-04T09:22:24.569Z,0.82
2023-05-04T09:23:24.573Z,0.78
2023-05-04T09:24:24.599Z,0.79
2023-05-04T09:25:24.686Z,0.79
2023-05-04T09:26:24.717Z,0.78
2023-05-04T09:27:24.788Z,0.76
2023-05-04T09:28:25.768Z,0.76
2023-05-04T09:29:24.916Z,0.77
2023-05-04T09:30:25.002Z,0.77
2023-05-04T09:31:25.153Z,0.83
2023-05-04T09:32:25.137Z,0.82
2023-05-04T09:33:25.111Z,0.91
2023-05-04T09:34:25.194Z,1.01
2023-05-04T09:35:32.388Z,1.00
2023-05-04T09:36:26.265Z,1.00
2023-05-04T09:37:25.259Z,0.91
2023-05-04T09:38:25.248Z,0.88
2023-05-04T09:39:25.264Z,0.85
2023-05-04T09:40:25.222Z,0.76
2023-05-04T09:41:25.637Z,0.66
2023-05-04T09:42:25.206Z,0.59
2023-05-04T09:43:25.249Z,0.52
2023-05-04T09:44:26.882Z,0.51
2023-05-04T09:45:25.221Z,0.50
2023-05-04T09:46:25.661Z,0.50
2023-05-04T09:47:25.216Z,0.50
2023-05-04T09:48:25.173Z,0.49
2023-05-04T09:49:25.299Z,0.50
2023-05-04T09:50:25.188Z,0.50
2023-05-04T09:51:25.137Z,0.50
2023-05-04T09:52:25.639Z,0.50
2023-05-04T09:53:25.225Z,0.50
2023-05-04T09:54:25.148Z,0.50
2023-05-04T09:55:25.117Z,0.50
2023-05-04T09:56:25.131Z,0.50
2023-05-04T09:57:25.092Z,0.50
2023-05-04T09:58:25.097Z,0.50
2023-05-04T09:59:25.072Z,0.51
2023-05-04T10:00:25.101Z,0.50
2023-05-04T10:01:25.107Z,0.51
2023-05-04T10:02:25.100Z,0.50
2023-05-04T10:03:25.125Z,0.52
2023-05-04T10:04:25.052Z,0.50
2023-05-04T10:05:25.079Z,0.50
2023-05-04T10:06:25.022Z,0.50
2023-05-04T10:07:25.041Z,0.50
2023-05-04T10:08:25.007Z,0.51
2023-05-04T10:09:25.019Z,0.52
2023-05-04T10:10:25.015Z,0.50
2023-05-04T10:11:24.993Z,0.51
2023-05-04T10:12:24.979Z,0.57
2023-05-04T10:13:24.998Z,0.61
2023-05-04T10:14:24.986Z,0.65
2023-05-04T10:15:24.972Z,0.72
2023-05-04T10:16:25.025Z,0.76
2023-05-04T10:17:24.975Z,0.89
2023-05-04T10:18:24.963Z,0.95
2023-05-04T10:19:24.950Z,0.97
2023-05-04T10:20:24.930Z,0.92
2023-05-04T10:21:24.913Z,0.91
2023-05-04T10:22:24.923Z,1.10
2023-05-04T10:23:24.896Z,1.13
2023-05-04T10:24:24.926Z,1.30
2023-05-04T10:25:24.955Z,1.42
2023-05-04T10:26:24.899Z,1.52
2023-05-04T10:27:24.898Z,1.70
2023-05-04T10:28:24.889Z,1.68
2023-05-04T10:29:24.902Z,1.77
2023-05-04T10:30:24.890Z,1.85
2023-05-04T10:31:24.901Z,1.77
2023-05-04T10:32:24.873Z,1.83
2023-05-04T10:33:24.871Z,2.02
2023-05-04T10:34:24.848Z,2.19
2023-05-04T10:35:24.846Z,2.17
2023-05-04T10:36:24.836Z,2.51
2023-05-04T10:37:24.820Z,2.49
2023-05-04T10:38:25.166Z,2.57
2023-05-04T10:39:24.851Z,2.67
2023-05-04T10:40:24.844Z,2.92
2023-05-04T10:41:24.787Z,2.88
2023-05-04T10:42:24.796Z,2.84
2023-05-04T10:43:24.802Z,2.98
2023-05-04T10:44:24.776Z,3.29
2023-05-04T10:45:24.816Z,3.45
2023-05-04T10:46:24.743Z,3.30
2023-05-04T10:47:24.857Z,3.09
2023-05-04T10:48:24.765Z,3.53
2023-05-04T10:49:24.724Z,3.41
2023-05-04T10:50:24.709Z,3.86
2023-05-04T10:51:30.380Z,3.80
2023-05-04T10:52:25.709Z,3.81
2023-05-04T10:53:24.701Z,3.81
2023-05-04T10:54:24.728Z,3.80
2023-05-04T10:55:24.748Z,3.85
2023-05-04T10:56:24.683Z,4.24
2023-05-04T10:57:24.729Z,4.05
2023-05-04T10:58:24.656Z,4.14
2023-05-04T10:59:24.681Z,3.95
2023-05-04T11:00:24.675Z,4.27
2023-05-04T11:01:24.688Z,4.68
2023-05-04T11:02:24.689Z,4.66
2023-05-04T11:03:24.753Z,4.60
2023-05-04T11:04:24.637Z,4.37
2023-05-04T11:05:24.619Z,4.31
2023-05-04T11:06:24.741Z,4.79
2023-05-04T11:07:24.630Z,4.77
2023-05-04T11:08:24.611Z,4.98
2023-05-04T11:09:24.636Z,4.82
2023-05-04T11:10:24.603Z,5.01
2023-05-04T11:11:24.583Z,5.00
2023-05-04T11:12:24.604Z,5.27
2023-05-04T11:13:24.676Z,5.30
2023-05-04T11:14:24.675Z,5.44
2023-05-04T11:15:24.638Z,5.44
2023-05-04T11:16:24.580Z,5.35
2023-05-04T11:17:28.465Z,5.42
2023-05-04T11:18:24.669Z,5.43
2023-05-04T11:19:24.669Z,5.46
2023-05-04T11:20:24.691Z,5.52
2023-05-04T11:21:24.521Z,5.56
2023-05-04T11:22:24.523Z,5.80
2023-05-04T11:23:24.702Z,5.99
2023-05-04T11:24:24.666Z,5.85
2023-05-04T11:25:24.495Z,5.76
2023-05-04T11:26:24.514Z,6.00
2023-05-04T11:27:24.525Z,6.09
2023-05-04T11:28:24.454Z,6.07
2023-05-04T11:29:24.460Z,5.93
2023-05-04T11:30:24.474Z,5.35
2023-05-04T11:31:24.481Z,5.64
2023-05-04T11:32:24.501Z,5.43
2023-05-04T11:33:24.429Z,5.20
2023-05-04T11:34:24.445Z,5.01
2023-05-04T11:35:24.446Z,5.52
2023-05-04T11:36:24.415Z,5.34
2023-05-04T11:37:24.411Z,5.56
2023-05-04T11:38:24.427Z,5.43
2023-05-04T11:39:24.388Z,5.64
2023-05-04T11:40:24.407Z,5.62
2023-05-04T11:41:24.405Z,5.47
2023-05-04T11:42:24.402Z,5.52
2023-05-04T11:43:24.402Z,5.61
2023-05-04T11:44:24.380Z,5.31
2023-05-04T11:45:24.383Z,5.07
2023-05-04T11:46:24.494Z,5.11
2023-05-04T11:47:24.364Z,5.01
2023-05-04T11:48:24.351Z,4.91
2023-05-04T11:49:24.338Z,5.10
2023-05-04T11:50:24.369Z,4.91
2023-05-04T11:51:24.379Z,5.42
2023-05-04T11:52:24.379Z,5.21
2023-05-04T11:53:24.368Z,5.01
2023-05-04T11:54:24.362Z,5.01
2023-05-04T11:55:24.280Z,5.47
2023-05-04T11:56:24.380Z,5.54
2023-05-04T11:57:24.310Z,5.16
2023-05-04T11:58:24.287Z,4.82
2023-05-04T11:59:24.293Z,5.30
2023-05-04T12:00:24.454Z,5.18
2023-05-04T12:01:24.268Z,4.82
2023-05-04T12:02:24.312Z,4.89
2023-05-04T12:03:25.935Z,4.82
2023-05-04T12:04:24.345Z,4.82
2023-05-04T12:05:24.307Z,4.57
2023-05-04T12:06:24.247Z,4.37
2023-05-04T12:07:24.230Z,4.24
2023-05-04T12:08:24.255Z,4.09
2023-05-04T12:09:24.242Z,4.21
2023-05-04T12:10:24.189Z,4.06
2023-05-04T12:11:24.203Z,4.10
2023-05-04T12:12:24.211Z,4.00
2023-05-04T12:13:24.190Z,3.95
2023-05-04T12:14:24.259Z,3.94
2023-05-04T12:15:24.330Z,3.89
2023-05-04T12:16:24.203Z,3.86
2023-05-04T12:17:24.282Z,3.86
2023-05-04T12:18:24.143Z,3.87
2023-05-04T12:19:24.154Z,3.82
2023-05-04T12:20:24.138Z,3.74
2023-05-04T12:21:24.136Z,3.79
2023-05-04T12:22:24.147Z,3.74
2023-05-04T12:23:24.125Z,3.77
2023-05-04T12:24:24.155Z,3.90
2023-05-04T12:25:24.114Z,3.84
2023-05-04T12:26:24.127Z,3.80
2023-05-04T12:27:24.106Z,3.90
2023-05-04T12:28:24.093Z,3.80
2023-05-04T12:29:24.096Z,3.78
2023-05-04T12:30:24.079Z,3.77
2023-05-04T12:31:25.366Z,3.88
2023-05-04T12:32:24.082Z,3.79
2023-05-04T12:33:24.077Z,3.81
2023-05-04T12:34:24.054Z,3.88
2023-05-04T12:35:24.034Z,3.81
2023-05-04T12:36:24.065Z,3.77
2023-05-04T12:37:25.099Z,3.78
2023-05-04T12:38:24.030Z,3.88
2023-05-04T12:39:24.039Z,3.73
2023-05-04T12:40:28.650Z,3.72
2023-05-04T12:41:25.016Z,3.72
2023-05-04T12:42:23.997Z,3.69
2023-05-04T12:43:23.985Z,3.65
2023-05-04T12:44:24.015Z,3.54
2023-05-04T12:45:23.974Z,3.42
2023-05-04T12:46:24.004Z,3.40
2023-05-04T12:47:24.006Z,3.39
2023-05-04T12:48:23.996Z,3.34
2023-05-04T12:49:24.854Z,3.51
2023-05-04T12:50:23.967Z,3.41
2023-05-04T12:51:23.994Z,3.35
2023-05-04T12:52:23.941Z,3.43
2023-05-04T12:53:23.946Z,3.43
2023-05-04T12:54:23.959Z,3.38
2023-05-04T12:55:25.427Z,3.44
2023-05-04T12:56:24.014Z,3.42
2023-05-04T12:57:24.000Z,3.42
2023-05-04T12:58:24.026Z,3.57
2023-05-04T12:59:24.071Z,3.58
2023-05-04T13:00:24.103Z,3.48
2023-05-04T13:01:24.223Z,3.38
2023-05-04T13:02:24.332Z,3.45
2023-05-04T13:03:24.441Z,3.50
2023-05-04T13:04:24.465Z,3.57
2023-05-04T13:05:24.419Z,3.50
2023-05-04T13:06:24.480Z,3.31
2023-05-04T13:07:24.543Z,3.36
2023-05-04T13:08:24.603Z,3.29
2023-05-04T13:09:24.651Z,3.28
2023-05-04T13:10:24.725Z,3.38
2023-05-04T13:11:24.775Z,3.34
2023-05-04T13:12:24.819Z,3.37
2023-05-04T13:13:24.890Z,3.38
2023-05-04T13:14:24.955Z,3.37
2023-05-04T13:15:25.024Z,3.43
2023-05-04T13:16:25.217Z,3.42
2023-05-04T13:17:25.147Z,3.48
2023-05-04T13:18:25.278Z,3.53